sensor_id;sensor_type;location;lat;lon;timestamp;P1;durP1;ratioP1;P2;durP2;ratioP2
44222;SDS011;29895;48.804;9.386;2024-01-15T00:00:17;75.80;;;26.08;;
44222;SDS011;29895;48.804;9.386;2024-01-15T00:02:43;77.18;;;24.55;;
44222;SDS011;29895;48.804;9.386;2024-01-15T00:05:08;82.75;;;26.65;;
44222;SDS011;29895;48.804;9.386;2024-01-15T00:07:35;78.47;;;25.27;;
44222;SDS011;29895;48.804;9.386;2024-01-15T00:10:00;77.75;;;25.02;;
44222;SDS011;29895;48.804;9.386;2024-01-15T00:12:26;77.78;;;26.00;;
44222;SDS011;29895;48.804;9.386;2024-01-15T00:14:53;73.28;;;23.67;;
44222;SDS011;29895;48.804;9.386;2024-01-15T00:17:18;72.88;;;24.13;;
44222;SDS011;29895;48.804;9.386;2024-01-15T00:19:44;78.88;;;24.73;;
44222;SDS011;29895;48.804;9.386;2024-01-15T00:22:10;76.90;;;25.05;;
44222;SDS011;29895;48.804;9.386;2024-01-15T00:24:35;73.80;;;26.33;;
44222;SDS011;29895;48.804;9.386;2024-01-15T00:27:01;74.70;;;25.55;;
44222;SDS011;29895;48.804;9.386;2024-01-15T00:29:26;78.28;;;26.90;;
44222;SDS011;29895;48.804;9.386;2024-01-15T00:31:52;74.38;;;25.17;;
44222;SDS011;29895;48.804;9.386;2024-01-15T00:34:17;75.97;;;26.42;;
44222;SDS011;29895;48.804;9.386;2024-01-15T00:36:43;74.60;;;24.38;;
44222;SDS011;29895;48.804;9.386;2024-01-15T00:39:09;80.43;;;23.90;;
44222;SDS011;29895;48.804;9.386;2024-01-15T00:41:35;71.68;;;23.92;;
44222;SDS011;29895;48.804;9.386;2024-01-15T00:44:01;74.82;;;23.48;;
44222;SDS011;29895;48.804;9.386;2024-01-15T00:46:28;73.70;;;25.35;;
44222;SDS011;29895;48.804;9.386;2024-01-15T00:48:53;70.97;;;23.75;;
44222;SDS011;29895;48.804;9.386;2024-01-15T00:51:19;68.30;;;24.15;;
44222;SDS011;29895;48.804;9.386;2024-01-15T00:53:44;73.40;;;24.35;;
44222;SDS011;29895;48.804;9.386;2024-01-15T00:56:10;73.18;;;24.70;;
44222;SDS011;29895;48.804;9.386;2024-01-15T00:58:36;67.82;;;23.30;;
44222;SDS011;29895;48.804;9.386;2024-01-15T01:01:01;67.53;;;23.75;;
44222;SDS011;29895;48.804;9.386;2024-01-15T01:03:27;70.95;;;22.98;;
44222;SDS011;29895;48.804;9.386;2024-01-15T01:05:53;67.18;;;23.65;;
44222;SDS011;29895;48.804;9.386;2024-01-15T01:08:18;66.18;;;23.83;;
44222;SDS011;29895;48.804;9.386;2024-01-15T01:10:44;69.45;;;24.23;;
44222;SDS011;29895;48.804;9.386;2024-01-15T01:13:10;69.03;;;23.45;;
44222;SDS011;29895;48.804;9.386;2024-01-15T01:15:35;70.72;;;24.02;;
44222;SDS011;29895;48.804;9.386;2024-01-15T01:18:01;78.65;;;25.35;;
44222;SDS011;29895;48.804;9.386;2024-01-15T01:20:27;75.45;;;26.00;;
44222;SDS011;29895;48.804;9.386;2024-01-15T01:22:53;76.40;;;25.00;;
44222;SDS011;29895;48.804;9.386;2024-01-15T01:25:18;72.85;;;23.83;;
44222;SDS011;29895;48.804;9.386;2024-01-15T01:27:44;68.40;;;23.88;;
44222;SDS011;29895;48.804;9.386;2024-01-15T01:30:10;74.63;;;25.50;;
44222;SDS011;29895;48.804;9.386;2024-01-15T01:32:35;64.93;;;22.77;;
44222;SDS011;29895;48.804;9.386;2024-01-15T01:35:01;67.03;;;23.77;;
44222;SDS011;29895;48.804;9.386;2024-01-15T01:37:27;66.53;;;22.55;;
44222;SDS011;29895;48.804;9.386;2024-01-15T01:39:52;70.07;;;22.08;;
44222;SDS011;29895;48.804;9.386;2024-01-15T01:42:18;66.40;;;24.25;;
44222;SDS011;29895;48.804;9.386;2024-01-15T01:44:44;71.13;;;23.50;;
44222;SDS011;29895;48.804;9.386;2024-01-15T01:47:09;64.82;;;22.25;;
44222;SDS011;29895;48.804;9.386;2024-01-15T01:49:35;67.40;;;23.42;;
44222;SDS011;29895;48.804;9.386;2024-01-15T01:52:02;65.22;;;21.30;;
44222;SDS011;29895;48.804;9.386;2024-01-15T01:54:31;64.13;;;22.45;;
44222;SDS011;29895;48.804;9.386;2024-01-15T01:56:57;76.13;;;23.33;;
44222;SDS011;29895;48.804;9.386;2024-01-15T01:59:27;61.85;;;21.73;;
44222;SDS011;29895;48.804;9.386;2024-01-15T02:01:53;64.85;;;21.58;;
44222;SDS011;29895;48.804;9.386;2024-01-15T02:04:20;69.03;;;22.33;;
44222;SDS011;29895;48.804;9.386;2024-01-15T02:06:48;62.70;;;21.58;;
44222;SDS011;29895;48.804;9.386;2024-01-15T02:09:14;63.72;;;22.27;;
44222;SDS011;29895;48.804;9.386;2024-01-15T02:11:41;61.60;;;21.75;;
44222;SDS011;29895;48.804;9.386;2024-01-15T02:14:07;64.10;;;21.83;;
44222;SDS011;29895;48.804;9.386;2024-01-15T02:16:34;69.35;;;21.52;;
44222;SDS011;29895;48.804;9.386;2024-01-15T02:19:00;58.60;;;22.10;;
44222;SDS011;29895;48.804;9.386;2024-01-15T02:21:25;67.00;;;21.52;;
44222;SDS011;29895;48.804;9.386;2024-01-15T02:23:53;58.00;;;21.60;;
44222;SDS011;29895;48.804;9.386;2024-01-15T02:26:19;62.75;;;21.35;;
44222;SDS011;29895;48.804;9.386;2024-01-15T02:28:45;59.50;;;21.92;;
44222;SDS011;29895;48.804;9.386;2024-01-15T02:31:11;57.50;;;19.73;;
44222;SDS011;29895;48.804;9.386;2024-01-15T02:33:37;59.53;;;20.52;;
44222;SDS011;29895;48.804;9.386;2024-01-15T02:36:03;60.78;;;21.17;;
44222;SDS011;29895;48.804;9.386;2024-01-15T02:38:29;64.45;;;20.55;;
44222;SDS011;29895;48.804;9.386;2024-01-15T02:40:54;57.75;;;20.52;;
44222;SDS011;29895;48.804;9.386;2024-01-15T02:43:20;49.55;;;18.73;;
44222;SDS011;29895;48.804;9.386;2024-01-15T02:45:46;43.92;;;16.65;;
44222;SDS011;29895;48.804;9.386;2024-01-15T02:48:12;41.53;;;15.45;;
44222;SDS011;29895;48.804;9.386;2024-01-15T02:50:37;38.20;;;14.52;;
44222;SDS011;29895;48.804;9.386;2024-01-15T02:53:03;37.67;;;12.60;;
44222;SDS011;29895;48.804;9.386;2024-01-15T02:55:29;35.92;;;14.27;;
44222;SDS011;29895;48.804;9.386;2024-01-15T02:57:54;34.03;;;12.48;;
44222;SDS011;29895;48.804;9.386;2024-01-15T03:00:20;36.97;;;13.82;;
44222;SDS011;29895;48.804;9.386;2024-01-15T03:02:46;39.50;;;13.07;;
44222;SDS011;29895;48.804;9.386;2024-01-15T03:05:12;35.22;;;13.00;;
44222;SDS011;29895;48.804;9.386;2024-01-15T03:07:38;40.97;;;14.02;;
44222;SDS011;29895;48.804;9.386;2024-01-15T03:10:04;42.78;;;14.07;;
44222;SDS011;29895;48.804;9.386;2024-01-15T03:12:31;43.10;;;14.15;;
44222;SDS011;29895;48.804;9.386;2024-01-15T03:14:56;45.60;;;15.60;;
44222;SDS011;29895;48.804;9.386;2024-01-15T03:17:22;43.13;;;15.27;;
44222;SDS011;29895;48.804;9.386;2024-01-15T03:19:48;44.17;;;15.38;;
44222;SDS011;29895;48.804;9.386;2024-01-15T03:22:14;40.58;;;14.82;;
44222;SDS011;29895;48.804;9.386;2024-01-15T03:24:41;43.70;;;16.17;;
44222;SDS011;29895;48.804;9.386;2024-01-15T03:27:06;48.58;;;17.33;;
44222;SDS011;29895;48.804;9.386;2024-01-15T03:29:32;48.20;;;17.20;;
44222;SDS011;29895;48.804;9.386;2024-01-15T03:31:58;48.08;;;16.73;;
44222;SDS011;29895;48.804;9.386;2024-01-15T03:34:23;51.80;;;18.30;;
44222;SDS011;29895;48.804;9.386;2024-01-15T03:36:49;50.15;;;17.02;;
44222;SDS011;29895;48.804;9.386;2024-01-15T03:39:15;44.25;;;16.38;;
44222;SDS011;29895;48.804;9.386;2024-01-15T03:41:40;47.00;;;16.45;;
44222;SDS011;29895;48.804;9.386;2024-01-15T03:44:06;48.92;;;17.83;;
44222;SDS011;29895;48.804;9.386;2024-01-15T03:46:32;48.30;;;15.93;;
44222;SDS011;29895;48.804;9.386;2024-01-15T03:48:57;48.63;;;15.43;;
44222;SDS011;29895;48.804;9.386;2024-01-15T03:51:23;43.63;;;14.60;;
44222;SDS011;29895;48.804;9.386;2024-01-15T03:53:49;46.15;;;15.50;;
44222;SDS011;29895;48.804;9.386;2024-01-15T03:56:15;40.53;;;14.23;;
44222;SDS011;29895;48.804;9.386;2024-01-15T03:58:41;36.47;;;13.48;;
44222;SDS011;29895;48.804;9.386;2024-01-15T04:01:09;32.53;;;12.38;;
44222;SDS011;29895;48.804;9.386;2024-01-15T04:03:35;32.95;;;13.00;;
44222;SDS011;29895;48.804;9.386;2024-01-15T04:06:02;37.70;;;11.95;;
44222;SDS011;29895;48.804;9.386;2024-01-15T04:08:28;34.70;;;12.30;;
44222;SDS011;29895;48.804;9.386;2024-01-15T04:10:53;39.95;;;13.40;;
44222;SDS011;29895;48.804;9.386;2024-01-15T04:13:20;30.40;;;11.52;;
44222;SDS011;29895;48.804;9.386;2024-01-15T04:15:45;33.85;;;11.98;;
44222;SDS011;29895;48.804;9.386;2024-01-15T04:18:11;32.30;;;12.15;;
44222;SDS011;29895;48.804;9.386;2024-01-15T04:20:37;31.42;;;11.05;;
44222;SDS011;29895;48.804;9.386;2024-01-15T04:23:03;29.35;;;9.90;;
44222;SDS011;29895;48.804;9.386;2024-01-15T04:25:29;33.00;;;11.55;;
44222;SDS011;29895;48.804;9.386;2024-01-15T04:27:55;33.53;;;11.77;;
44222;SDS011;29895;48.804;9.386;2024-01-15T04:30:20;39.78;;;13.05;;
44222;SDS011;29895;48.804;9.386;2024-01-15T04:32:46;35.80;;;12.27;;
44222;SDS011;29895;48.804;9.386;2024-01-15T04:35:12;34.50;;;11.70;;
44222;SDS011;29895;48.804;9.386;2024-01-15T04:37:37;37.58;;;12.82;;
44222;SDS011;29895;48.804;9.386;2024-01-15T04:40:04;29.80;;;11.55;;
44222;SDS011;29895;48.804;9.386;2024-01-15T04:42:30;33.08;;;11.98;;
44222;SDS011;29895;48.804;9.386;2024-01-15T04:44:56;37.10;;;11.40;;
44222;SDS011;29895;48.804;9.386;2024-01-15T04:47:22;30.52;;;11.00;;
44222;SDS011;29895;48.804;9.386;2024-01-15T04:49:47;34.47;;;12.00;;
44222;SDS011;29895;48.804;9.386;2024-01-15T04:52:14;31.02;;;12.15;;
44222;SDS011;29895;48.804;9.386;2024-01-15T04:54:40;32.67;;;11.02;;
44222;SDS011;29895;48.804;9.386;2024-01-15T04:57:05;30.70;;;10.50;;
44222;SDS011;29895;48.804;9.386;2024-01-15T04:59:31;29.40;;;11.23;;
44222;SDS011;29895;48.804;9.386;2024-01-15T05:01:57;29.85;;;11.00;;
44222;SDS011;29895;48.804;9.386;2024-01-15T05:04:23;27.77;;;10.50;;
44222;SDS011;29895;48.804;9.386;2024-01-15T05:06:49;26.02;;;11.57;;
44222;SDS011;29895;48.804;9.386;2024-01-15T05:09:15;29.50;;;10.98;;
44222;SDS011;29895;48.804;9.386;2024-01-15T05:11:42;29.58;;;11.43;;
44222;SDS011;29895;48.804;9.386;2024-01-15T05:14:08;34.72;;;11.45;;
44222;SDS011;29895;48.804;9.386;2024-01-15T05:16:34;30.73;;;11.73;;
44222;SDS011;29895;48.804;9.386;2024-01-15T05:18:59;30.55;;;12.60;;
44222;SDS011;29895;48.804;9.386;2024-01-15T05:21:25;33.90;;;11.88;;
44222;SDS011;29895;48.804;9.386;2024-01-15T05:23:51;34.10;;;12.55;;
44222;SDS011;29895;48.804;9.386;2024-01-15T05:26:16;34.42;;;12.57;;
44222;SDS011;29895;48.804;9.386;2024-01-15T05:28:42;35.13;;;11.70;;
44222;SDS011;29895;48.804;9.386;2024-01-15T05:31:08;37.33;;;12.75;;
44222;SDS011;29895;48.804;9.386;2024-01-15T05:33:34;31.92;;;11.27;;
44222;SDS011;29895;48.804;9.386;2024-01-15T05:36:00;30.45;;;11.88;;
44222;SDS011;29895;48.804;9.386;2024-01-15T05:38:27;31.85;;;12.43;;
44222;SDS011;29895;48.804;9.386;2024-01-15T05:40:52;33.35;;;11.90;;
44222;SDS011;29895;48.804;9.386;2024-01-15T05:43:18;32.80;;;11.90;;
44222;SDS011;29895;48.804;9.386;2024-01-15T05:45:44;35.38;;;12.85;;
44222;SDS011;29895;48.804;9.386;2024-01-15T05:48:10;29.17;;;10.77;;
44222;SDS011;29895;48.804;9.386;2024-01-15T05:50:36;28.15;;;11.18;;
44222;SDS011;29895;48.804;9.386;2024-01-15T05:53:01;27.23;;;10.77;;
44222;SDS011;29895;48.804;9.386;2024-01-15T05:55:27;29.98;;;11.10;;
44222;SDS011;29895;48.804;9.386;2024-01-15T05:57:53;26.73;;;10.05;;
44222;SDS011;29895;48.804;9.386;2024-01-15T06:00:19;27.15;;;10.07;;
44222;SDS011;29895;48.804;9.386;2024-01-15T06:02:44;26.88;;;10.23;;
44222;SDS011;29895;48.804;9.386;2024-01-15T06:05:10;32.20;;;11.65;;
44222;SDS011;29895;48.804;9.386;2024-01-15T06:07:36;28.92;;;11.82;;
44222;SDS011;29895;48.804;9.386;2024-01-15T06:10:02;30.98;;;11.05;;
44222;SDS011;29895;48.804;9.386;2024-01-15T06:12:28;27.00;;;10.18;;
44222;SDS011;29895;48.804;9.386;2024-01-15T06:14:54;26.02;;;10.65;;
44222;SDS011;29895;48.804;9.386;2024-01-15T06:17:19;28.75;;;10.50;;
44222;SDS011;29895;48.804;9.386;2024-01-15T06:19:45;27.42;;;10.85;;
44222;SDS011;29895;48.804;9.386;2024-01-15T06:22:11;29.30;;;10.27;;
44222;SDS011;29895;48.804;9.386;2024-01-15T06:24:36;33.55;;;13.65;;
44222;SDS011;29895;48.804;9.386;2024-01-15T06:27:02;32.83;;;12.32;;
44222;SDS011;29895;48.804;9.386;2024-01-15T06:29:27;33.28;;;11.15;;
44222;SDS011;29895;48.804;9.386;2024-01-15T06:31:53;27.98;;;10.68;;
44222;SDS011;29895;48.804;9.386;2024-01-15T06:34:19;27.30;;;10.23;;
44222;SDS011;29895;48.804;9.386;2024-01-15T06:36:45;27.15;;;10.75;;
44222;SDS011;29895;48.804;9.386;2024-01-15T06:39:10;31.73;;;11.57;;
44222;SDS011;29895;48.804;9.386;2024-01-15T06:41:36;25.70;;;10.15;;
44222;SDS011;29895;48.804;9.386;2024-01-15T06:44:09;29.05;;;11.82;;
44222;SDS011;29895;48.804;9.386;2024-01-15T06:46:35;26.00;;;10.57;;
44222;SDS011;29895;48.804;9.386;2024-01-15T06:49:01;30.02;;;10.15;;
44222;SDS011;29895;48.804;9.386;2024-01-15T06:51:27;27.75;;;10.85;;
44222;SDS011;29895;48.804;9.386;2024-01-15T06:53:53;25.50;;;9.98;;
44222;SDS011;29895;48.804;9.386;2024-01-15T06:56:19;26.25;;;10.55;;
44222;SDS011;29895;48.804;9.386;2024-01-15T06:58:45;23.83;;;9.68;;
44222;SDS011;29895;48.804;9.386;2024-01-15T07:01:10;25.42;;;10.10;;
44222;SDS011;29895;48.804;9.386;2024-01-15T07:03:36;22.95;;;9.30;;
44222;SDS011;29895;48.804;9.386;2024-01-15T07:06:02;29.98;;;10.25;;
44222;SDS011;29895;48.804;9.386;2024-01-15T07:08:28;28.58;;;10.13;;
44222;SDS011;29895;48.804;9.386;2024-01-15T07:10:54;24.10;;;9.13;;
44222;SDS011;29895;48.804;9.386;2024-01-15T07:13:19;28.02;;;10.38;;
44222;SDS011;29895;48.804;9.386;2024-01-15T07:15:45;28.67;;;10.65;;
44222;SDS011;29895;48.804;9.386;2024-01-15T07:18:10;28.30;;;10.85;;
44222;SDS011;29895;48.804;9.386;2024-01-15T07:20:36;27.52;;;10.80;;
44222;SDS011;29895;48.804;9.386;2024-01-15T07:23:02;25.38;;;10.18;;
44222;SDS011;29895;48.804;9.386;2024-01-15T07:25:28;26.83;;;10.95;;
44222;SDS011;29895;48.804;9.386;2024-01-15T07:27:53;26.02;;;10.80;;
44222;SDS011;29895;48.804;9.386;2024-01-15T07:30:19;26.35;;;10.65;;
44222;SDS011;29895;48.804;9.386;2024-01-15T07:32:46;23.88;;;10.48;;
44222;SDS011;29895;48.804;9.386;2024-01-15T07:35:13;29.20;;;11.32;;
44222;SDS011;29895;48.804;9.386;2024-01-15T07:37:40;29.20;;;11.35;;
44222;SDS011;29895;48.804;9.386;2024-01-15T07:40:06;28.27;;;11.27;;
44222;SDS011;29895;48.804;9.386;2024-01-15T07:42:33;25.17;;;11.63;;
44222;SDS011;29895;48.804;9.386;2024-01-15T07:44:59;23.50;;;10.70;;
44222;SDS011;29895;48.804;9.386;2024-01-15T07:47:26;22.65;;;9.88;;
44222;SDS011;29895;48.804;9.386;2024-01-15T07:49:52;27.27;;;10.00;;
44222;SDS011;29895;48.804;9.386;2024-01-15T07:52:18;29.05;;;10.13;;
44222;SDS011;29895;48.804;9.386;2024-01-15T07:54:44;26.85;;;10.65;;
44222;SDS011;29895;48.804;9.386;2024-01-15T07:57:10;23.80;;;9.88;;
44222;SDS011;29895;48.804;9.386;2024-01-15T07:59:35;22.63;;;9.02;;
44222;SDS011;29895;48.804;9.386;2024-01-15T08:02:01;21.67;;;9.48;;
44222;SDS011;29895;48.804;9.386;2024-01-15T08:04:27;21.25;;;8.82;;
44222;SDS011;29895;48.804;9.386;2024-01-15T08:06:52;21.15;;;9.13;;
44222;SDS011;29895;48.804;9.386;2024-01-15T08:09:18;22.15;;;8.55;;
44222;SDS011;29895;48.804;9.386;2024-01-15T08:11:44;22.42;;;9.35;;
44222;SDS011;29895;48.804;9.386;2024-01-15T08:14:10;23.65;;;8.70;;
44222;SDS011;29895;48.804;9.386;2024-01-15T08:16:36;19.10;;;7.50;;
44222;SDS011;29895;48.804;9.386;2024-01-15T08:19:02;19.10;;;7.72;;
44222;SDS011;29895;48.804;9.386;2024-01-15T08:21:27;18.00;;;8.02;;
44222;SDS011;29895;48.804;9.386;2024-01-15T08:23:59;19.98;;;7.55;;
44222;SDS011;29895;48.804;9.386;2024-01-15T08:26:27;21.42;;;8.68;;
44222;SDS011;29895;48.804;9.386;2024-01-15T08:28:53;21.40;;;8.98;;
44222;SDS011;29895;48.804;9.386;2024-01-15T08:31:19;19.48;;;8.15;;
44222;SDS011;29895;48.804;9.386;2024-01-15T08:33:45;18.35;;;8.23;;
44222;SDS011;29895;48.804;9.386;2024-01-15T08:36:11;20.58;;;8.10;;
44222;SDS011;29895;48.804;9.386;2024-01-15T08:38:36;18.83;;;7.85;;
44222;SDS011;29895;48.804;9.386;2024-01-15T08:41:02;19.30;;;9.02;;
44222;SDS011;29895;48.804;9.386;2024-01-15T08:43:28;17.15;;;7.47;;
44222;SDS011;29895;48.804;9.386;2024-01-15T08:45:56;23.58;;;7.72;;
44222;SDS011;29895;48.804;9.386;2024-01-15T08:48:22;19.77;;;7.28;;
44222;SDS011;29895;48.804;9.386;2024-01-15T08:50:47;16.88;;;7.30;;
44222;SDS011;29895;48.804;9.386;2024-01-15T08:53:13;19.00;;;8.23;;
44222;SDS011;29895;48.804;9.386;2024-01-15T08:55:39;21.90;;;8.05;;
44222;SDS011;29895;48.804;9.386;2024-01-15T08:58:07;18.13;;;7.60;;
44222;SDS011;29895;48.804;9.386;2024-01-15T09:00:33;17.90;;;6.65;;
44222;SDS011;29895;48.804;9.386;2024-01-15T09:02:59;16.20;;;6.72;;
44222;SDS011;29895;48.804;9.386;2024-01-15T09:05:24;22.85;;;6.88;;
44222;SDS011;29895;48.804;9.386;2024-01-15T09:07:50;16.52;;;6.45;;
44222;SDS011;29895;48.804;9.386;2024-01-15T09:10:17;21.08;;;7.03;;
44222;SDS011;29895;48.804;9.386;2024-01-15T09:12:43;14.82;;;6.03;;
44222;SDS011;29895;48.804;9.386;2024-01-15T09:15:09;17.58;;;6.30;;
44222;SDS011;29895;48.804;9.386;2024-01-15T09:17:34;23.23;;;6.60;;
44222;SDS011;29895;48.804;9.386;2024-01-15T09:20:00;20.85;;;6.32;;
44222;SDS011;29895;48.804;9.386;2024-01-15T09:22:26;23.40;;;6.57;;
44222;SDS011;29895;48.804;9.386;2024-01-15T09:24:52;22.60;;;7.00;;
44222;SDS011;29895;48.804;9.386;2024-01-15T09:27:18;27.05;;;6.85;;
44222;SDS011;29895;48.804;9.386;2024-01-15T09:29:43;22.52;;;7.10;;
44222;SDS011;29895;48.804;9.386;2024-01-15T09:32:11;20.85;;;5.80;;
44222;SDS011;29895;48.804;9.386;2024-01-15T09:34:37;25.73;;;6.72;;
44222;SDS011;29895;48.804;9.386;2024-01-15T09:37:03;21.10;;;6.38;;
44222;SDS011;29895;48.804;9.386;2024-01-15T09:39:29;18.33;;;6.60;;
44222;SDS011;29895;48.804;9.386;2024-01-15T09:41:55;27.77;;;7.22;;
44222;SDS011;29895;48.804;9.386;2024-01-15T09:44:22;20.73;;;6.28;;
44222;SDS011;29895;48.804;9.386;2024-01-15T09:46:48;19.52;;;5.65;;
44222;SDS011;29895;48.804;9.386;2024-01-15T09:49:16;28.15;;;6.30;;
44222;SDS011;29895;48.804;9.386;2024-01-15T09:51:42;39.90;;;8.35;;
44222;SDS011;29895;48.804;9.386;2024-01-15T09:54:08;37.67;;;6.78;;
44222;SDS011;29895;48.804;9.386;2024-01-15T09:56:34;25.20;;;6.38;;
44222;SDS011;29895;48.804;9.386;2024-01-15T09:59:03;33.55;;;6.72;;
44222;SDS011;29895;48.804;9.386;2024-01-15T10:01:31;40.47;;;5.88;;
44222;SDS011;29895;48.804;9.386;2024-01-15T10:03:58;27.50;;;6.30;;
44222;SDS011;29895;48.804;9.386;2024-01-15T10:06:24;30.67;;;5.32;;
44222;SDS011;29895;48.804;9.386;2024-01-15T10:08:53;29.73;;;5.40;;
44222;SDS011;29895;48.804;9.386;2024-01-15T10:11:20;27.50;;;6.70;;
44222;SDS011;29895;48.804;9.386;2024-01-15T10:13:46;27.58;;;6.07;;
44222;SDS011;29895;48.804;9.386;2024-01-15T10:16:12;18.85;;;5.05;;
44222;SDS011;29895;48.804;9.386;2024-01-15T10:18:38;28.25;;;6.10;;
44222;SDS011;29895;48.804;9.386;2024-01-15T10:21:07;25.70;;;5.70;;
44222;SDS011;29895;48.804;9.386;2024-01-15T10:23:33;30.35;;;5.22;;
44222;SDS011;29895;48.804;9.386;2024-01-15T10:25:59;26.60;;;5.00;;
44222;SDS011;29895;48.804;9.386;2024-01-15T10:28:25;19.02;;;4.72;;
44222;SDS011;29895;48.804;9.386;2024-01-15T10:30:53;13.00;;;5.63;;
44222;SDS011;29895;48.804;9.386;2024-01-15T10:33:23;22.30;;;5.10;;
44222;SDS011;29895;48.804;9.386;2024-01-15T10:35:51;21.75;;;4.95;;
44222;SDS011;29895;48.804;9.386;2024-01-15T10:38:24;14.32;;;4.93;;
44222;SDS011;29895;48.804;9.386;2024-01-15T10:40:51;13.70;;;4.80;;
44222;SDS011;29895;48.804;9.386;2024-01-15T10:43:17;17.30;;;4.95;;
44222;SDS011;29895;48.804;9.386;2024-01-15T10:45:46;46.78;;;6.78;;
44222;SDS011;29895;48.804;9.386;2024-01-15T10:48:14;13.35;;;4.95;;
44222;SDS011;29895;48.804;9.386;2024-01-15T10:50:41;20.83;;;5.70;;
44222;SDS011;29895;48.804;9.386;2024-01-15T10:53:08;23.38;;;5.05;;
44222;SDS011;29895;48.804;9.386;2024-01-15T10:55:37;19.35;;;5.25;;
44222;SDS011;29895;48.804;9.386;2024-01-15T10:58:04;31.92;;;5.53;;
44222;SDS011;29895;48.804;9.386;2024-01-15T11:00:32;12.52;;;4.80;;
44222;SDS011;29895;48.804;9.386;2024-01-15T11:03:00;20.27;;;5.35;;
44222;SDS011;29895;48.804;9.386;2024-01-15T11:05:27;15.45;;;5.40;;
44222;SDS011;29895;48.804;9.386;2024-01-15T11:07:56;27.88;;;5.95;;
44222;SDS011;29895;48.804;9.386;2024-01-15T11:10:37;39.38;;;7.50;;
44222;SDS011;29895;48.804;9.386;2024-01-15T11:13:08;31.98;;;7.40;;
44222;SDS011;29895;48.804;9.386;2024-01-15T11:15:56;15.82;;;5.30;;
44222;SDS011;29895;48.804;9.386;2024-01-15T11:18:26;12.77;;;4.43;;
44222;SDS011;29895;48.804;9.386;2024-01-15T11:26:55;18.90;;;5.45;;
44222;SDS011;29895;48.804;9.386;2024-01-15T11:29:10;16.10;;;6.03;;
44222;SDS011;29895;48.804;9.386;2024-01-15T11:37:18;15.73;;;4.95;;
44222;SDS011;29895;48.804;9.386;2024-01-15T11:39:44;12.02;;;4.40;;
44222;SDS011;29895;48.804;9.386;2024-01-15T11:42:12;11.63;;;4.95;;
44222;SDS011;29895;48.804;9.386;2024-01-15T11:44:38;16.50;;;5.22;;
44222;SDS011;29895;48.804;9.386;2024-01-15T11:51:59;12.18;;;4.85;;
44222;SDS011;29895;48.804;9.386;2024-01-15T11:54:27;7.35;;;4.35;;
44222;SDS011;29895;48.804;9.386;2024-01-15T11:56:58;13.90;;;5.22;;
44222;SDS011;29895;48.804;9.386;2024-01-15T11:59:26;11.50;;;4.78;;
44222;SDS011;29895;48.804;9.386;2024-01-15T12:01:52;15.50;;;5.85;;
44222;SDS011;29895;48.804;9.386;2024-01-15T12:04:20;13.68;;;5.07;;
44222;SDS011;29895;48.804;9.386;2024-01-15T12:06:46;11.07;;;4.97;;
44222;SDS011;29895;48.804;9.386;2024-01-15T12:09:11;13.25;;;5.72;;
44222;SDS011;29895;48.804;9.386;2024-01-15T12:11:37;11.80;;;4.97;;
44222;SDS011;29895;48.804;9.386;2024-01-15T12:14:08;11.48;;;5.32;;
44222;SDS011;29895;48.804;9.386;2024-01-15T12:16:34;14.40;;;5.72;;
44222;SDS011;29895;48.804;9.386;2024-01-15T12:19:00;14.30;;;5.65;;
44222;SDS011;29895;48.804;9.386;2024-01-15T12:21:26;14.60;;;5.15;;
44222;SDS011;29895;48.804;9.386;2024-01-15T12:23:52;14.90;;;5.45;;
44222;SDS011;29895;48.804;9.386;2024-01-15T12:26:19;13.70;;;5.72;;
44222;SDS011;29895;48.804;9.386;2024-01-15T12:28:45;13.98;;;5.38;;
44222;SDS011;29895;48.804;9.386;2024-01-15T12:31:11;12.88;;;4.85;;
44222;SDS011;29895;48.804;9.386;2024-01-15T12:33:36;15.52;;;5.47;;
44222;SDS011;29895;48.804;9.386;2024-01-15T12:36:03;10.77;;;5.35;;
44222;SDS011;29895;48.804;9.386;2024-01-15T12:38:29;14.90;;;5.28;;
44222;SDS011;29895;48.804;9.386;2024-01-15T12:40:54;13.50;;;5.78;;
44222;SDS011;29895;48.804;9.386;2024-01-15T12:43:20;16.67;;;5.95;;
44222;SDS011;29895;48.804;9.386;2024-01-15T12:45:46;14.63;;;5.72;;
44222;SDS011;29895;48.804;9.386;2024-01-15T12:48:12;13.30;;;5.85;;
44222;SDS011;29895;48.804;9.386;2024-01-15T12:50:42;12.10;;;5.00;;
44222;SDS011;29895;48.804;9.386;2024-01-15T12:53:08;12.85;;;5.78;;
44222;SDS011;29895;48.804;9.386;2024-01-15T12:55:34;12.10;;;5.18;;
44222;SDS011;29895;48.804;9.386;2024-01-15T12:58:00;12.00;;;5.20;;
44222;SDS011;29895;48.804;9.386;2024-01-15T13:00:25;15.65;;;6.20;;
44222;SDS011;29895;48.804;9.386;2024-01-15T13:02:51;11.48;;;4.82;;
44222;SDS011;29895;48.804;9.386;2024-01-15T13:05:17;13.77;;;5.75;;
44222;SDS011;29895;48.804;9.386;2024-01-15T13:07:44;15.65;;;6.32;;
44222;SDS011;29895;48.804;9.386;2024-01-15T13:10:09;14.35;;;6.72;;
44222;SDS011;29895;48.804;9.386;2024-01-15T13:12:36;14.95;;;6.43;;
44222;SDS011;29895;48.804;9.386;2024-01-15T13:15:02;15.23;;;6.47;;
44222;SDS011;29895;48.804;9.386;2024-01-15T13:17:28;14.13;;;6.38;;
44222;SDS011;29895;48.804;9.386;2024-01-15T13:19:54;15.70;;;6.15;;
44222;SDS011;29895;48.804;9.386;2024-01-15T13:22:19;14.32;;;6.85;;
44222;SDS011;29895;48.804;9.386;2024-01-15T13:24:45;14.43;;;5.70;;
44222;SDS011;29895;48.804;9.386;2024-01-15T13:27:11;11.73;;;6.10;;
44222;SDS011;29895;48.804;9.386;2024-01-15T13:29:36;13.52;;;5.78;;
44222;SDS011;29895;48.804;9.386;2024-01-15T13:32:03;14.77;;;5.93;;
44222;SDS011;29895;48.804;9.386;2024-01-15T13:34:30;15.82;;;6.53;;
44222;SDS011;29895;48.804;9.386;2024-01-15T13:36:55;15.35;;;6.38;;
44222;SDS011;29895;48.804;9.386;2024-01-15T13:39:22;11.93;;;5.32;;
44222;SDS011;29895;48.804;9.386;2024-01-15T13:41:48;11.35;;;5.10;;
44222;SDS011;29895;48.804;9.386;2024-01-15T13:44:14;15.27;;;5.60;;
44222;SDS011;29895;48.804;9.386;2024-01-15T13:46:40;11.07;;;4.85;;
44222;SDS011;29895;48.804;9.386;2024-01-15T13:49:06;8.60;;;4.80;;
44222;SDS011;29895;48.804;9.386;2024-01-15T13:51:34;9.77;;;4.60;;
44222;SDS011;29895;48.804;9.386;2024-01-15T13:54:00;13.55;;;4.60;;
44222;SDS011;29895;48.804;9.386;2024-01-15T13:56:26;11.38;;;4.85;;
44222;SDS011;29895;48.804;9.386;2024-01-15T13:58:56;12.07;;;4.47;;
44222;SDS011;29895;48.804;9.386;2024-01-15T14:01:23;10.48;;;4.93;;
44222;SDS011;29895;48.804;9.386;2024-01-15T14:03:49;10.43;;;4.82;;
44222;SDS011;29895;48.804;9.386;2024-01-15T14:06:14;11.13;;;4.85;;
44222;SDS011;29895;48.804;9.386;2024-01-15T14:08:40;15.88;;;6.18;;
44222;SDS011;29895;48.804;9.386;2024-01-15T14:11:06;12.95;;;5.32;;
44222;SDS011;29895;48.804;9.386;2024-01-15T14:13:32;17.67;;;6.25;;
44222;SDS011;29895;48.804;9.386;2024-01-15T14:15:58;11.65;;;5.63;;
44222;SDS011;29895;48.804;9.386;2024-01-15T14:18:25;17.50;;;6.57;;
44222;SDS011;29895;48.804;9.386;2024-01-15T14:20:51;11.02;;;4.43;;
44222;SDS011;29895;48.804;9.386;2024-01-15T14:23:18;14.48;;;4.97;;
44222;SDS011;29895;48.804;9.386;2024-01-15T14:25:44;9.68;;;4.30;;
44222;SDS011;29895;48.804;9.386;2024-01-15T14:28:10;12.25;;;5.40;;
44222;SDS011;29895;48.804;9.386;2024-01-15T14:30:36;10.13;;;5.10;;
44222;SDS011;29895;48.804;9.386;2024-01-15T14:33:01;9.77;;;4.60;;
44222;SDS011;29895;48.804;9.386;2024-01-15T14:35:27;10.18;;;4.55;;
44222;SDS011;29895;48.804;9.386;2024-01-15T14:37:52;11.27;;;4.70;;